createdAt,value
2022-08-01T00:01:31.650Z,1.60
2022-08-01T00:03:59.527Z,1.70
2022-08-01T00:06:27.396Z,1.80
2022-08-01T00:08:55.816Z,1.87
2022-08-01T00:11:23.864Z,2.07
2022-08-01T00:13:51.858Z,1.93
2022-08-01T00:16:19.794Z,1.63
2022-08-01T00:18:49.099Z,2.10
2022-08-01T00:21:17.033Z,1.70
2022-08-01T00:23:46.337Z,1.90
2022-08-01T00:26:14.747Z,1.80
2022-08-01T00:28:43.187Z,1.83
2022-08-01T00:31:11.168Z,1.77
2022-08-01T00:33:39.166Z,1.50
2022-08-01T00:36:09.672Z,1.93
2022-08-01T00:38:37.564Z,1.90
2022-08-01T00:41:05.506Z,1.83
2022-08-01T00:43:33.444Z,1.60
2022-08-01T00:46:01.384Z,2.00
2022-08-01T00:48:29.240Z,1.73
2022-08-01T00:50:57.137Z,1.60
2022-08-01T00:53:26.837Z,1.90
2022-08-01T00:56:15.552Z,1.93
2022-08-01T00:58:43.641Z,2.10
2022-08-01T01:01:14.034Z,2.20
2022-08-01T01:03:58.616Z,1.73
2022-08-01T01:06:48.435Z,1.77
2022-08-01T01:09:25.933Z,2.10
2022-08-01T01:12:03.769Z,2.03
2022-08-01T01:14:38.851Z,1.90
2022-08-01T01:17:09.854Z,1.80
2022-08-01T01:19:44.102Z,2.10
2022-08-01T01:22:33.298Z,1.93
2022-08-01T01:25:19.414Z,2.40
2022-08-01T01:27:59.306Z,2.50
2022-08-01T01:30:32.032Z,2.30
2022-08-01T01:33:04.389Z,2.23
2022-08-01T01:35:36.335Z,1.90
2022-08-01T01:38:09.691Z,2.20
2022-08-01T01:40:39.147Z,1.80
2022-08-01T01:43:11.699Z,2.37
2022-08-01T01:45:42.214Z,1.80
2022-08-01T01:48:12.096Z,2.10
2022-08-01T01:50:42.476Z,2.10
2022-08-01T01:53:15.094Z,1.70
2022-08-01T01:55:49.314Z,2.00
2022-08-01T01:58:19.491Z,2.00
2022-08-01T02:00:50.967Z,1.90
2022-08-01T02:03:20.737Z,2.17
2022-08-01T02:05:50.612Z,2.00
2022-08-01T02:08:19.524Z,2.17
2022-08-01T02:11:02.647Z,1.90
2022-08-01T02:13:31.479Z,2.20
2022-08-01T02:16:00.930Z,2.43
2022-08-01T02:18:29.228Z,2.30
2022-08-01T02:21:01.173Z,2.40
2022-08-01T02:23:34.232Z,2.20
2022-08-01T02:26:09.539Z,2.23
2022-08-01T02:28:45.481Z,2.10
2022-08-01T02:31:18.555Z,2.47
2022-08-01T02:33:53.505Z,2.40
2022-08-01T02:36:30.218Z,2.47
2022-08-01T02:39:02.668Z,2.10
2022-08-01T02:41:32.651Z,1.97
2022-08-01T02:44:04.708Z,1.80
2022-08-01T02:46:40.345Z,2.10
2022-08-01T02:49:11.560Z,2.80
2022-08-01T02:51:41.738Z,2.53
2022-08-01T02:54:12.391Z,2.93
2022-08-01T02:56:41.877Z,3.33
2022-08-01T02:59:13.753Z,2.67
2022-08-01T03:01:46.464Z,2.43
2022-08-01T03:04:19.561Z,2.77
2022-08-01T03:06:49.325Z,2.40
2022-08-01T03:09:18.950Z,2.43
2022-08-01T03:11:50.132Z,2.60
2022-08-01T03:14:19.579Z,2.60
2022-08-01T03:16:52.293Z,2.97
2022-08-01T03:19:24.991Z,2.67
2022-08-01T03:21:54.201Z,2.63
2022-08-01T03:24:25.394Z,2.57
2022-08-01T03:26:54.941Z,3.03
2022-08-01T03:29:26.684Z,2.37
2022-08-01T03:31:56.756Z,3.30
2022-08-01T03:34:25.101Z,2.67
2022-08-01T03:37:01.612Z,2.60
2022-08-01T03:39:34.585Z,2.50
2022-08-01T03:42:09.001Z,2.53
2022-08-01T03:44:40.163Z,2.70
2022-08-01T03:47:11.065Z,2.97
2022-08-01T03:49:44.874Z,2.90
2022-08-01T03:52:13.419Z,2.43
2022-08-01T03:54:48.311Z,2.43
2022-08-01T03:57:35.914Z,2.57
2022-08-01T04:00:09.822Z,2.57
2022-08-01T04:02:43.608Z,3.10
2022-08-01T04:05:12.504Z,2.90
2022-08-01T04:07:41.149Z,2.70
2022-08-01T04:10:09.572Z,2.83
2022-08-01T04:12:37.763Z,2.93
2022-08-01T04:15:06.708Z,3.40
2022-08-01T04:17:35.081Z,3.13
2022-08-01T04:20:05.256Z,2.90
2022-08-01T04:22:37.178Z,2.60
2022-08-01T04:25:11.512Z,3.00
2022-08-01T04:27:48.436Z,2.90
2022-08-01T04:30:22.254Z,2.73
2022-08-01T04:32:51.886Z,2.40
2022-08-01T04:35:23.526Z,3.00
2022-08-01T04:38:11.753Z,2.67
2022-08-01T04:40:40.313Z,2.97
2022-08-01T04:43:08.760Z,2.90
2022-08-01T04:45:37.423Z,2.73
2022-08-01T04:48:08.566Z,2.97
2022-08-01T04:50:38.802Z,2.80
2022-08-01T04:53:06.742Z,2.77
2022-08-01T04:55:34.658Z,2.80
2022-08-01T04:58:04.960Z,2.63
2022-08-01T05:00:35.020Z,2.97
2022-08-01T05:03:02.995Z,2.90
2022-08-01T05:05:31.530Z,2.80
2022-08-01T05:08:01.204Z,3.00
2022-08-01T05:10:29.579Z,2.50
2022-08-01T05:12:57.496Z,2.97
2022-08-01T05:15:25.535Z,3.20
2022-08-01T05:17:53.418Z,3.10
2022-08-01T05:20:22.305Z,3.10
2022-08-01T05:22:50.613Z,3.20
2022-08-01T05:25:25.810Z,3.20
2022-08-01T05:28:07.882Z,2.70
2022-08-01T05:30:36.573Z,3.00
2022-08-01T05:33:04.492Z,3.03
2022-08-01T05:35:47.887Z,3.67
2022-08-01T05:38:17.383Z,3.67
2022-08-01T05:40:46.694Z,3.00
2022-08-01T05:43:14.607Z,3.27
2022-08-01T05:45:42.834Z,2.70
2022-08-01T05:48:10.798Z,3.30
2022-08-01T05:50:38.772Z,3.10
2022-08-01T05:53:06.648Z,3.00
2022-08-01T05:55:34.575Z,3.17
2022-08-01T05:58:04.624Z,2.97
2022-08-01T06:00:32.503Z,2.73
2022-08-01T06:03:00.465Z,2.80
2022-08-01T06:05:28.475Z,3.10
2022-08-01T06:07:56.819Z,2.10
2022-08-01T06:10:24.788Z,2.83
2022-08-01T06:12:52.669Z,3.00
2022-08-01T06:15:21.977Z,2.30
2022-08-01T06:17:49.863Z,2.90
2022-08-01T06:20:17.783Z,2.80
2022-08-01T06:22:45.727Z,2.70
2022-08-01T06:25:21.299Z,3.20
2022-08-01T06:27:50.525Z,2.50
2022-08-01T06:30:18.674Z,2.07
2022-08-01T06:32:48.494Z,2.13
2022-08-01T06:35:16.724Z,1.93
2022-08-01T06:37:45.803Z,2.10
2022-08-01T06:40:17.195Z,1.97
2022-08-01T06:42:46.676Z,2.77
2022-08-01T06:45:15.819Z,2.10
2022-08-01T06:47:45.128Z,2.37
2022-08-01T06:50:20.271Z,2.17
2022-08-01T06:52:48.174Z,1.70
2022-08-01T06:55:16.566Z,1.60
2022-08-01T06:57:48.703Z,2.23
2022-08-01T07:00:19.543Z,1.80
2022-08-01T07:02:47.761Z,1.40
2022-08-01T07:05:15.670Z,1.37
2022-08-01T07:07:45.028Z,1.53
2022-08-01T07:10:12.992Z,1.60
2022-08-01T07:12:42.049Z,1.60
2022-08-01T07:15:11.897Z,1.60
2022-08-01T07:17:40.965Z,1.60
2022-08-01T07:20:10.680Z,1.50
2022-08-01T07:22:38.900Z,1.40
2022-08-01T07:25:09.724Z,1.20
2022-08-01T07:27:38.425Z,1.60
2022-08-01T07:30:07.570Z,1.60
2022-08-01T07:32:35.938Z,1.40
2022-08-01T07:35:04.308Z,1.57
2022-08-01T07:37:48.059Z,1.70
2022-08-01T07:40:20.056Z,1.30
2022-08-01T07:42:48.967Z,1.60
2022-08-01T07:45:17.262Z,1.40
2022-08-01T07:47:45.442Z,1.37
2022-08-01T07:50:14.445Z,1.40
2022-08-01T07:52:42.706Z,1.63
2022-08-01T07:55:11.764Z,1.67
2022-08-01T07:57:45.935Z,1.57
2022-08-01T08:00:15.232Z,1.73
2022-08-01T08:02:43.241Z,1.97
2022-08-01T08:05:12.453Z,1.73
2022-08-01T08:07:40.926Z,1.90
2022-08-01T08:10:09.787Z,1.83
2022-08-01T08:12:38.626Z,1.70
2022-08-01T08:15:09.037Z,2.13
2022-08-01T08:17:37.124Z,1.90
2022-08-01T08:20:09.267Z,2.10
2022-08-01T08:22:38.646Z,2.17
2022-08-01T08:25:08.478Z,2.37
2022-08-01T08:27:37.592Z,2.20
2022-08-01T08:30:09.380Z,2.53
2022-08-01T08:32:38.047Z,2.37
2022-08-01T08:35:07.345Z,2.20
2022-08-01T08:37:38.000Z,2.40
2022-08-01T08:40:08.372Z,2.40
2022-08-01T08:43:01.935Z,2.97
2022-08-01T08:45:58.730Z,3.00
2022-08-01T08:48:20.944Z,3.10
2022-08-01T08:50:57.300Z,2.60
2022-08-01T08:53:25.999Z,2.80
2022-08-01T08:56:04.022Z,2.87
2022-08-01T08:58:35.208Z,3.10
2022-08-01T09:01:06.903Z,3.13
2022-08-01T09:03:35.176Z,2.90
2022-08-01T09:06:03.627Z,2.10
2022-08-01T09:08:31.619Z,3.13
2022-08-01T09:10:59.676Z,2.53
2022-08-01T09:13:27.791Z,2.50
2022-08-01T09:15:59.752Z,2.57
2022-08-01T09:18:32.495Z,2.93
2022-08-01T09:21:12.130Z,2.90
2022-08-01T09:23:53.942Z,3.40
2022-08-01T09:26:31.275Z,3.30
2022-08-01T09:29:00.371Z,3.47
2022-08-01T09:31:38.238Z,3.70
2022-08-01T09:34:10.162Z,4.30
2022-08-01T09:36:54.321Z,4.10
2022-08-01T09:39:24.797Z,4.50
2022-08-01T09:41:54.863Z,4.40
2022-08-01T09:44:42.631Z,4.40
2022-08-01T09:47:15.390Z,4.50
2022-08-01T09:49:51.862Z,3.93
2022-08-01T09:52:25.894Z,3.60
2022-08-01T09:54:59.288Z,3.20
2022-08-01T09:57:28.831Z,3.67
2022-08-01T10:00:00.597Z,3.27
2022-08-01T10:02:32.606Z,3.33
2022-08-01T10:05:08.087Z,3.00
2022-08-01T10:07:42.891Z,2.90
2022-08-01T10:10:15.062Z,2.53
2022-08-01T10:12:45.203Z,2.87
2022-08-01T10:15:17.844Z,3.37
2022-08-01T10:17:57.328Z,3.00
2022-08-01T10:20:30.447Z,3.43
2022-08-01T10:23:02.361Z,3.00
2022-08-01T10:25:42.945Z,3.13
2022-08-01T10:28:18.127Z,2.87
2022-08-01T10:30:50.146Z,2.37
2022-08-01T10:33:49.688Z,2.67
2022-08-01T10:36:08.495Z,2.67
2022-08-01T10:38:37.493Z,2.50
2022-08-01T10:41:08.776Z,2.77
2022-08-01T10:43:37.648Z,2.43
2022-08-01T10:46:06.622Z,2.43
2022-08-01T10:48:45.851Z,2.70
2022-08-01T10:51:19.083Z,2.57
2022-08-01T10:53:53.910Z,2.40
2022-08-01T10:56:26.992Z,1.90
2022-08-01T10:59:06.105Z,2.20
2022-08-01T11:01:44.686Z,2.10
2022-08-01T11:04:17.699Z,1.90
2022-08-01T11:07:06.836Z,2.10
2022-08-01T11:09:45.948Z,2.20
2022-08-01T11:12:23.361Z,1.80
2022-08-01T11:15:30.093Z,2.10
2022-08-01T11:18:04.446Z,1.97
2022-08-01T11:20:39.525Z,2.17
2022-08-01T11:23:23.466Z,2.40
2022-08-01T11:26:10.196Z,1.93
2022-08-01T11:28:40.444Z,1.90
2022-08-01T11:31:37.749Z,2.20
2022-08-01T11:34:06.607Z,2.17
2022-08-01T11:36:58.019Z,2.10
2022-08-01T11:39:24.461Z,2.13
2022-08-01T11:41:53.599Z,2.10
2022-08-01T11:44:34.430Z,2.27
2022-08-01T11:47:09.794Z,2.20
2022-08-01T11:49:51.570Z,2.30
2022-08-01T11:52:21.863Z,2.20
2022-08-01T11:54:53.253Z,1.67
2022-08-01T11:57:23.831Z,1.87
2022-08-01T12:00:04.749Z,1.90
2022-08-01T12:02:42.914Z,2.03
2022-08-01T12:05:15.523Z,1.97
2022-08-01T12:07:45.884Z,1.80
2022-08-01T12:10:17.365Z,1.83
2022-08-01T12:12:46.780Z,1.77
2022-08-01T12:15:15.360Z,1.83
2022-08-01T12:17:55.293Z,1.83
2022-08-01T12:20:30.942Z,1.60
2022-08-01T12:23:01.731Z,1.80
2022-08-01T12:25:31.447Z,2.00
2022-08-01T12:28:03.495Z,1.90
2022-08-01T12:30:36.236Z,1.63
2022-08-01T12:33:05.601Z,2.10
2022-08-01T12:35:35.198Z,1.70
2022-08-01T12:38:05.575Z,2.20
2022-08-01T12:40:37.569Z,1.90
2022-08-01T12:43:08.808Z,1.73
2022-08-01T12:45:40.529Z,1.80
2022-08-01T12:48:22.561Z,1.90
2022-08-01T12:50:51.759Z,2.00
2022-08-01T12:53:21.420Z,1.67
2022-08-01T12:55:59.660Z,1.87
2022-08-01T12:58:33.504Z,1.77
2022-08-01T13:01:06.016Z,2.00
2022-08-01T13:03:34.055Z,1.90
2022-08-01T13:06:02.341Z,1.90
2022-08-01T13:08:32.581Z,1.60
2022-08-01T13:11:05.780Z,1.90
2022-08-01T13:13:40.814Z,2.37
2022-08-01T13:16:12.555Z,1.73
2022-08-01T13:18:50.655Z,1.77
2022-08-01T13:21:20.143Z,1.90
2022-08-01T13:24:04.601Z,1.90
2022-08-01T13:26:45.593Z,1.80
2022-08-01T13:29:15.230Z,1.73
2022-08-01T13:31:43.564Z,1.60
2022-08-01T13:34:12.024Z,2.10
2022-08-01T13:36:45.512Z,2.00
2022-08-01T13:39:35.807Z,1.77
2022-08-01T13:42:05.868Z,1.90
2022-08-01T13:44:34.033Z,2.30
2022-08-01T13:47:02.085Z,1.97
2022-08-01T13:49:44.148Z,1.97
2022-08-01T13:52:12.197Z,2.17
2022-08-01T13:54:40.127Z,1.70
2022-08-01T13:57:10.389Z,1.83
2022-08-01T13:59:38.579Z,1.73
2022-08-01T14:02:06.881Z,1.83
2022-08-01T14:04:35.045Z,1.80
2022-08-01T14:07:07.413Z,1.70
2022-08-01T14:09:57.656Z,1.53
2022-08-01T14:12:28.215Z,2.30
2022-08-01T14:14:56.157Z,2.00
2022-08-01T14:17:24.082Z,2.20
2022-08-01T14:19:52.043Z,2.00
2022-08-01T14:22:20.184Z,2.00
2022-08-01T14:24:48.651Z,1.73
2022-08-01T14:27:16.564Z,1.70
2022-08-01T14:30:02.248Z,1.93
2022-08-01T14:32:31.952Z,1.70
2022-08-01T14:34:59.868Z,1.67
2022-08-01T14:37:28.579Z,2.20
2022-08-01T14:39:57.253Z,8.83
2022-08-01T14:42:26.932Z,3.23
2022-08-01T14:44:56.274Z,2.10
2022-08-01T14:47:24.226Z,2.10
2022-08-01T14:49:52.330Z,1.87
2022-08-01T14:52:21.517Z,2.20
2022-08-01T14:54:49.523Z,1.70
2022-08-01T14:57:19.192Z,2.00
2022-08-01T14:59:47.977Z,2.20
2022-08-01T15:02:18.236Z,2.10
2022-08-01T15:04:46.918Z,2.30
2022-08-01T15:07:15.756Z,2.17
2022-08-01T15:09:43.793Z,1.80
2022-08-01T15:12:12.368Z,1.70
2022-08-01T15:14:49.932Z,2.17
2022-08-01T15:17:20.879Z,1.87
2022-08-01T15:19:51.738Z,1.70
2022-08-01T15:22:19.679Z,1.80
2022-08-01T15:24:47.565Z,1.90
2022-08-01T15:27:15.611Z,1.97
2022-08-01T15:29:43.742Z,1.60
2022-08-01T15:32:11.940Z,1.60
2022-08-01T15:34:41.392Z,1.50
2022-08-01T15:37:09.635Z,1.90
2022-08-01T15:39:38.633Z,1.90
2022-08-01T15:42:09.510Z,1.53
2022-08-01T15:44:37.893Z,1.80
2022-08-01T15:47:06.763Z,1.60
2022-08-01T15:49:37.043Z,1.60
2022-08-01T15:52:07.517Z,1.80
2022-08-01T15:54:49.551Z,1.50
2022-08-01T15:57:17.575Z,1.73
2022-08-01T15:59:45.458Z,1.80
2022-08-01T16:02:14.506Z,1.50
2022-08-01T16:04:42.952Z,1.50
2022-08-01T16:07:12.939Z,1.50
2022-08-01T16:09:40.896Z,1.60
2022-08-01T16:12:10.238Z,1.60
2022-08-01T16:14:38.487Z,1.57
2022-08-01T16:17:06.478Z,1.50
2022-08-01T16:19:34.475Z,1.50
2022-08-01T16:22:02.367Z,1.20
2022-08-01T16:24:31.651Z,1.20
2022-08-01T16:26:59.713Z,1.60
2022-08-01T16:29:30.709Z,1.30
2022-08-01T16:32:08.076Z,1.17
2022-08-01T16:34:37.888Z,1.30
2022-08-01T16:37:09.867Z,1.43
2022-08-01T16:39:39.250Z,1.50
2022-08-01T16:42:07.940Z,1.30
2022-08-01T16:44:36.113Z,1.00
2022-08-01T16:47:05.418Z,2.47
2022-08-01T16:49:33.730Z,1.53
2022-08-01T16:52:01.909Z,1.27
2022-08-01T16:54:29.791Z,1.23
2022-08-01T16:57:08.461Z,1.20
2022-08-01T16:59:41.227Z,1.27
2022-08-01T17:02:11.161Z,1.17
2022-08-01T17:04:39.264Z,1.10
2022-08-01T17:07:07.714Z,1.30
2022-08-01T17:09:39.754Z,1.23
2022-08-01T17:12:13.972Z,1.10
2022-08-01T17:14:48.979Z,1.10
2022-08-01T17:17:17.028Z,1.17
2022-08-01T17:19:45.029Z,1.20
2022-08-01T17:22:13.531Z,0.93
2022-08-01T17:24:41.466Z,1.10
2022-08-01T17:27:13.006Z,1.20
2022-08-01T17:29:43.839Z,1.30
2022-08-01T17:32:12.546Z,1.17
2022-08-01T17:34:40.484Z,1.00
2022-08-01T17:37:08.886Z,1.10
2022-08-01T17:39:39.182Z,0.90
2022-08-01T17:42:08.826Z,1.10
2022-08-01T17:44:36.749Z,1.20
2022-08-01T17:47:07.628Z,1.37
2022-08-01T17:52:26.077Z,1.00
2022-08-01T17:54:57.951Z,0.90
2022-08-01T17:57:26.148Z,1.00
2022-08-01T17:59:54.059Z,0.90
2022-08-01T18:02:23.393Z,0.90
2022-08-01T18:04:52.326Z,0.97
2022-08-01T18:07:20.379Z,1.10
2022-08-01T18:09:48.259Z,1.20
2022-08-01T18:12:16.950Z,1.20
2022-08-01T18:14:46.807Z,1.17
2022-08-01T18:17:15.069Z,0.93
2022-08-01T18:19:46.722Z,0.80
2022-08-01T18:22:31.823Z,1.20
2022-08-01T18:25:03.911Z,1.00
2022-08-01T18:28:22.562Z,0.77
2022-08-01T18:30:24.789Z,0.90
2022-08-01T18:32:52.673Z,0.90
2022-08-01T18:35:22.558Z,0.90
2022-08-01T18:37:55.463Z,1.10
2022-08-01T18:40:23.460Z,1.00
2022-08-01T18:42:51.511Z,1.00
2022-08-01T18:45:19.534Z,0.80
2022-08-01T18:47:48.369Z,0.97
2022-08-01T18:50:16.376Z,0.93
2022-08-01T18:52:45.670Z,1.20
2022-08-01T18:55:13.554Z,2.07
2022-08-01T18:57:42.680Z,3.00
2022-08-01T19:00:13.691Z,3.17
2022-08-01T19:02:42.784Z,2.87
2022-08-01T19:05:11.338Z,2.10
2022-08-01T19:08:05.093Z,2.40
2022-08-01T19:10:28.487Z,1.87
2022-08-01T19:12:56.431Z,1.33
2022-08-01T19:15:24.338Z,1.20
2022-08-01T19:17:52.934Z,1.40
2022-08-01T19:20:20.811Z,1.27
2022-08-01T19:22:48.723Z,1.60
2022-08-01T19:25:16.762Z,1.20
2022-08-01T19:27:48.074Z,1.20
2022-08-01T19:30:18.575Z,1.23
2022-08-01T19:32:48.738Z,1.40
2022-08-01T19:35:17.946Z,1.40
2022-08-01T19:37:47.715Z,1.50
2022-08-01T19:40:26.272Z,1.20
2022-08-01T19:42:57.973Z,1.20
2022-08-01T19:45:29.202Z,1.40
2022-08-01T19:47:58.144Z,1.93
2022-08-01T19:50:27.008Z,1.70
2022-08-01T19:52:57.372Z,1.70
2022-08-01T19:55:28.558Z,1.70
2022-08-01T19:58:25.807Z,2.40
2022-08-01T20:00:47.049Z,1.60
2022-08-01T20:03:18.289Z,2.33
2022-08-01T20:05:46.532Z,2.73
2022-08-01T20:08:17.525Z,1.77
2022-08-01T20:10:47.545Z,1.60
2022-08-01T20:13:18.257Z,1.47
2022-08-01T20:15:46.168Z,1.90
2022-08-01T20:18:14.081Z,1.67
2022-08-01T20:20:42.603Z,1.87
2022-08-01T20:23:18.179Z,1.50
2022-08-01T20:25:50.520Z,1.90
2022-08-01T20:28:27.048Z,2.00
2022-08-01T20:31:00.059Z,1.60
2022-08-01T20:33:31.989Z,2.13
2022-08-01T20:36:02.307Z,1.80
2022-08-01T20:38:31.642Z,2.00
2022-08-01T20:41:02.965Z,1.80
2022-08-01T20:43:32.931Z,1.97
2022-08-01T20:46:01.206Z,2.17
2022-08-01T20:48:31.236Z,2.20
2022-08-01T20:51:16.153Z,5.10
2022-08-01T20:53:46.806Z,3.60
2022-08-01T20:56:21.514Z,2.70
2022-08-01T20:59:04.441Z,2.60
2022-08-01T21:01:39.980Z,2.30
2022-08-01T21:04:32.532Z,2.87
2022-08-01T21:07:04.729Z,2.07
2022-08-01T21:09:39.542Z,2.40
2022-08-01T21:12:14.315Z,2.43
2022-08-01T21:14:52.210Z,2.60
2022-08-01T21:17:35.571Z,2.80
2022-08-01T21:20:07.444Z,2.70
2022-08-01T21:22:38.979Z,2.90
2022-08-01T21:25:10.990Z,2.90
2022-08-01T21:27:40.926Z,2.63
2022-08-01T21:30:11.256Z,2.90
2022-08-01T21:32:43.646Z,2.43
2022-08-01T21:35:16.671Z,2.93
2022-08-01T21:37:52.171Z,2.40
2022-08-01T21:40:21.862Z,2.73
2022-08-01T21:42:51.739Z,2.50
2022-08-01T21:45:23.130Z,2.60
2022-08-01T21:47:51.768Z,3.03
2022-08-01T21:50:20.140Z,2.73
2022-08-01T21:52:50.633Z,3.10
2022-08-01T21:55:34.985Z,2.70
2022-08-01T21:58:19.123Z,3.00
2022-08-01T22:00:53.363Z,2.80
2022-08-01T22:03:24.643Z,2.83
2022-08-01T22:05:54.072Z,2.50
2022-08-01T22:08:34.870Z,2.40
2022-08-01T22:11:07.030Z,2.70
2022-08-01T22:13:36.045Z,2.77
2022-08-01T22:16:06.906Z,2.20
2022-08-01T22:18:37.179Z,2.00
2022-08-01T22:21:05.372Z,2.27
2022-08-01T22:23:37.036Z,2.30
2022-08-01T22:26:07.925Z,1.87
2022-08-01T22:28:37.704Z,2.33
2022-08-01T22:31:07.805Z,2.30
2022-08-01T22:33:36.523Z,1.90
2022-08-01T22:36:05.668Z,2.03
2022-08-01T22:38:33.704Z,1.90
2022-08-01T22:41:04.487Z,2.00
2022-08-01T22:43:43.011Z,2.30
2022-08-01T22:46:29.281Z,2.20
2022-08-01T22:49:02.056Z,2.27
2022-08-01T22:51:54.616Z,2.43
2022-08-01T22:54:29.880Z,1.90
2022-08-01T22:57:01.817Z,2.07
2022-08-01T22:59:47.160Z,2.10
2022-08-01T23:02:18.115Z,2.40
2022-08-01T23:04:47.918Z,1.90
2022-08-01T23:07:21.010Z,2.20
2022-08-01T23:09:53.857Z,2.60
2022-08-01T23:12:25.932Z,2.40
2022-08-01T23:14:55.453Z,2.50
2022-08-01T23:17:26.634Z,2.73
2022-08-01T23:19:58.998Z,2.40
2022-08-01T23:22:30.724Z,2.40
2022-08-01T23:25:04.421Z,2.30
2022-08-01T23:27:51.205Z,2.70
2022-08-01T23:30:25.683Z,2.53
2022-08-01T23:32:55.316Z,2.70
2022-08-01T23:35:24.161Z,2.70
2022-08-01T23:37:52.653Z,2.83
2022-08-01T23:40:22.910Z,2.67
2022-08-01T23:42:54.454Z,2.70
2022-08-01T23:45:22.999Z,2.70
2022-08-01T23:47:51.056Z,2.43
2022-08-01T23:50:21.752Z,2.60
2022-08-01T23:52:50.896Z,2.50
2022-08-01T23:55:24.495Z,2.50
2022-08-01T23:58:06.440Z,2.10
